createdAt,value
2018-09-03T00:00:53.312Z,17.36
2018-09-03T00:03:21.756Z,17.41
2018-09-03T00:05:50.267Z,17.49
2018-09-03T00:08:18.773Z,17.53
2018-09-03T00:10:47.364Z,17.59
2018-09-03T00:13:15.892Z,17.59
2018-09-03T00:15:44.341Z,17.57
2018-09-03T00:18:12.827Z,17.59
2018-09-03T00:20:41.273Z,17.60
2018-09-03T00:23:09.684Z,17.60
2018-09-03T00:25:38.176Z,17.60
2018-09-03T00:28:06.649Z,17.57
2018-09-03T00:30:35.034Z,17.58
2018-09-03T00:33:08.746Z,17.57
2018-09-03T00:35:42.564Z,17.58
2018-09-03T00:38:16.397Z,17.58
2018-09-03T00:40:50.069Z,17.56
2018-09-03T00:43:24.024Z,17.59
2018-09-03T00:45:57.769Z,17.62
2018-09-03T00:48:26.310Z,17.63
2018-09-03T00:50:55.022Z,17.65
2018-09-03T00:53:23.588Z,17.63
2018-09-03T00:55:52.021Z,17.67
2018-09-03T00:58:20.540Z,17.65
2018-09-03T01:00:49.972Z,17.63
2018-09-03T01:03:19.064Z,17.55
2018-09-03T01:05:48.440Z,17.51
2018-09-03T01:08:17.160Z,17.48
2018-09-03T01:10:45.771Z,17.46
2018-09-03T01:13:14.350Z,17.46
2018-09-03T01:15:43.019Z,17.43
2018-09-03T01:18:11.519Z,17.41
2018-09-03T01:20:39.952Z,17.40
2018-09-03T01:23:08.370Z,17.39
2018-09-03T01:25:36.828Z,17.39
2018-09-03T01:28:05.280Z,17.39
2018-09-03T01:30:33.782Z,17.39
2018-09-03T01:33:02.275Z,17.37
2018-09-03T01:35:30.778Z,17.36
2018-09-03T01:37:59.202Z,17.35
2018-09-03T01:40:27.582Z,17.34
2018-09-03T01:42:56.061Z,17.34
2018-09-03T01:45:24.592Z,17.34
2018-09-03T01:47:53.262Z,17.36
2018-09-03T01:50:21.641Z,17.42
2018-09-03T01:52:50.051Z,17.48
2018-09-03T01:55:18.564Z,17.48
2018-09-03T01:57:46.986Z,17.50
2018-09-03T02:00:15.368Z,17.55
2018-09-03T02:02:44.012Z,17.58
2018-09-03T02:05:12.434Z,17.57
2018-09-03T02:07:40.857Z,17.55
2018-09-03T02:10:09.352Z,17.53
2018-09-03T02:12:37.884Z,17.53
2018-09-03T02:15:06.528Z,17.54
2018-09-03T02:17:35.380Z,17.56
2018-09-03T02:20:03.870Z,17.60
2018-09-03T02:22:32.512Z,17.61
2018-09-03T02:25:01.471Z,17.60
2018-09-03T02:27:29.958Z,17.61
2018-09-03T02:29:58.344Z,17.59
2018-09-03T02:32:26.778Z,17.57
2018-09-03T02:34:55.188Z,17.57
2018-09-03T02:37:23.668Z,17.57
2018-09-03T02:39:52.196Z,17.57
2018-09-03T02:42:20.985Z,17.58
2018-09-03T02:44:49.462Z,17.56
2018-09-03T02:47:17.950Z,17.54
2018-09-03T02:49:46.433Z,17.53
2018-09-03T02:52:14.920Z,17.54
2018-09-03T02:54:43.372Z,17.55
2018-09-03T02:57:11.876Z,17.55
2018-09-03T02:59:40.366Z,17.55
2018-09-03T03:02:08.792Z,17.54
2018-09-03T03:04:37.292Z,17.53
2018-09-03T03:07:05.752Z,17.49
2018-09-03T03:09:34.238Z,17.50
2018-09-03T03:12:02.622Z,17.53
2018-09-03T03:14:31.114Z,17.56
2018-09-03T03:16:59.500Z,17.53
2018-09-03T03:19:28.622Z,17.55
2018-09-03T03:21:58.788Z,17.55
2018-09-03T03:24:27.243Z,17.49
2018-09-03T03:26:55.700Z,17.45
2018-09-03T03:29:24.211Z,17.39
2018-09-03T03:31:52.710Z,17.40
2018-09-03T03:34:21.218Z,17.41
2018-09-03T03:36:49.724Z,17.41
2018-09-03T03:39:18.267Z,17.42
2018-09-03T03:41:46.748Z,17.44
2018-09-03T03:44:15.211Z,17.43
2018-09-03T03:46:43.629Z,17.41
2018-09-03T03:49:12.108Z,17.43
2018-09-03T03:51:40.608Z,17.47
2018-09-03T03:54:09.093Z,17.47
2018-09-03T03:56:37.618Z,17.38
2018-09-03T03:59:06.180Z,17.36
2018-09-03T04:01:34.737Z,17.38
2018-09-03T04:04:03.219Z,17.39
2018-09-03T04:06:31.769Z,17.37
2018-09-03T04:09:00.494Z,17.35
2018-09-03T04:11:29.023Z,17.31
2018-09-03T04:13:57.602Z,17.24
2018-09-03T04:16:26.078Z,17.28
2018-09-03T04:18:54.538Z,17.32
2018-09-03T04:21:22.895Z,17.36
2018-09-03T04:23:51.315Z,17.40
2018-09-03T04:26:19.758Z,17.30
2018-09-03T04:28:48.377Z,17.25
2018-09-03T04:31:16.794Z,17.24
2018-09-03T04:33:45.277Z,17.25
2018-09-03T04:36:13.736Z,17.28
2018-09-03T04:38:42.291Z,17.26
2018-09-03T04:41:10.689Z,17.29
2018-09-03T04:43:44.292Z,17.29
2018-09-03T04:46:12.756Z,17.29
2018-09-03T04:48:41.223Z,17.29
2018-09-03T04:51:09.884Z,17.30
2018-09-03T04:53:38.424Z,17.29
2018-09-03T04:56:06.932Z,17.32
2018-09-03T04:58:35.443Z,17.34
2018-09-03T05:01:03.962Z,17.36
2018-09-03T05:03:32.404Z,17.32
2018-09-03T05:06:01.004Z,17.33
2018-09-03T05:08:29.622Z,17.36
2018-09-03T05:10:58.146Z,17.39
2018-09-03T05:13:27.107Z,17.44
2018-09-03T05:15:55.739Z,17.42
2018-09-03T05:18:24.246Z,17.41
2018-09-03T05:20:52.731Z,17.40
2018-09-03T05:23:21.222Z,17.43
2018-09-03T05:25:49.685Z,17.42
2018-09-03T05:28:18.112Z,17.45
2018-09-03T05:30:46.594Z,17.46
2018-09-03T05:33:15.167Z,17.46
2018-09-03T05:35:43.596Z,17.47
2018-09-03T05:38:13.499Z,17.50
2018-09-03T05:40:42.901Z,17.55
2018-09-03T05:43:11.528Z,17.54
2018-09-03T05:45:40.170Z,17.55
2018-09-03T05:48:08.760Z,17.52
2018-09-03T05:50:37.556Z,17.53
2018-09-03T05:53:06.427Z,17.56
2018-09-03T05:55:35.328Z,17.54
2018-09-03T05:58:04.107Z,17.53
2018-09-03T06:00:32.906Z,17.53
2018-09-03T06:03:01.457Z,17.55
2018-09-03T06:05:30.108Z,17.59
2018-09-03T06:07:58.554Z,17.66
2018-09-03T06:10:26.967Z,17.71
2018-09-03T06:12:56.218Z,17.76
2018-09-03T06:15:24.777Z,17.77
2018-09-03T06:17:53.381Z,17.78
2018-09-03T06:20:21.883Z,17.79
2018-09-03T06:22:50.501Z,17.78
2018-09-03T06:25:19.066Z,17.81
2018-09-03T06:27:47.607Z,17.81
2018-09-03T06:30:16.085Z,17.84
2018-09-03T06:32:44.721Z,17.84
2018-09-03T06:35:13.110Z,17.85
2018-09-03T06:37:42.274Z,17.85
2018-09-03T06:40:10.947Z,17.88
2018-09-03T06:42:39.720Z,17.88
2018-09-03T06:45:08.328Z,17.90
2018-09-03T06:47:36.896Z,17.91
2018-09-03T06:50:05.967Z,17.97
2018-09-03T06:52:35.135Z,17.99
2018-09-03T06:55:03.567Z,17.99
2018-09-03T06:57:33.698Z,18.01
2018-09-03T07:00:02.257Z,18.02
2018-09-03T07:02:30.792Z,18.02
2018-09-03T07:04:59.327Z,18.05
2018-09-03T07:07:28.076Z,18.07
2018-09-03T07:09:56.545Z,18.09
2018-09-03T07:12:25.109Z,18.07
2018-09-03T07:14:54.472Z,18.07
2018-09-03T07:17:22.875Z,18.10
2018-09-03T07:19:51.335Z,18.14
2018-09-03T07:22:19.921Z,18.07
2018-09-03T07:24:49.343Z,18.05
2018-09-03T07:27:18.806Z,18.05
2018-09-03T07:29:47.985Z,18.03
2018-09-03T07:32:17.910Z,18.01
2018-09-03T07:34:46.753Z,18.04
2018-09-03T07:37:15.223Z,18.02
2018-09-03T07:39:45.327Z,18.01
2018-09-03T07:42:17.125Z,18.05
2018-09-03T07:44:45.871Z,18.13
2018-09-03T07:47:14.373Z,18.16
2018-09-03T07:49:42.860Z,18.17
2018-09-03T07:52:11.589Z,18.18
2018-09-03T07:54:40.495Z,18.15
2018-09-03T07:57:09.012Z,18.15
2018-09-03T07:59:37.400Z,18.21
2018-09-03T08:02:06.112Z,18.25
2018-09-03T08:04:34.604Z,18.25
2018-09-03T08:07:03.146Z,18.29
2018-09-03T08:09:31.761Z,18.33
2018-09-03T08:12:00.452Z,18.39
2018-09-03T08:14:29.013Z,18.45
2018-09-03T08:16:57.501Z,18.54
2018-09-03T08:19:26.000Z,18.57
2018-09-03T08:21:54.712Z,18.62
2018-09-03T08:24:23.849Z,18.65
2018-09-03T08:26:53.262Z,18.66
2018-09-03T08:29:23.461Z,18.67
2018-09-03T08:31:52.499Z,18.72
2018-09-03T08:34:21.175Z,18.80
2018-09-03T08:36:49.876Z,18.89
2018-09-03T08:39:18.912Z,19.02
2018-09-03T08:41:47.550Z,19.08
2018-09-03T08:44:16.038Z,19.16
2018-09-03T08:46:44.466Z,19.19
2018-09-03T08:49:12.930Z,19.24
2018-09-03T08:51:41.453Z,19.25
2018-09-03T08:54:09.912Z,19.30
2018-09-03T08:56:39.501Z,19.32
2018-09-03T08:59:08.312Z,19.34
2018-09-03T09:01:37.045Z,19.40
2018-09-03T09:04:05.761Z,19.45
2018-09-03T09:06:34.565Z,19.50
2018-09-03T09:09:03.389Z,19.52
2018-09-03T09:11:32.349Z,19.53
2018-09-03T09:14:00.897Z,19.55
2018-09-03T09:16:29.706Z,19.65
2018-09-03T09:18:58.112Z,19.81
2018-09-03T09:21:26.568Z,20.01
2018-09-03T09:23:54.989Z,20.08
2018-09-03T09:26:23.564Z,20.10
2018-09-03T09:28:52.132Z,20.05
2018-09-03T09:31:20.629Z,20.00
2018-09-03T09:33:49.260Z,19.96
2018-09-03T09:36:17.798Z,19.92
2018-09-03T09:38:46.522Z,19.89
2018-09-03T09:41:14.987Z,19.93
2018-09-03T09:43:43.496Z,19.96
2018-09-03T09:46:11.964Z,20.03
2018-09-03T09:48:40.474Z,20.09
2018-09-03T09:51:08.996Z,20.16
2018-09-03T09:53:37.806Z,20.18
2018-09-03T09:56:06.680Z,20.21
2018-09-03T09:58:35.246Z,20.23
2018-09-03T10:01:09.122Z,20.30
2018-09-03T10:03:37.549Z,20.39
2018-09-03T10:06:06.138Z,20.42
2018-09-03T10:08:34.557Z,20.43
2018-09-03T10:11:04.385Z,20.45
2018-09-03T10:13:33.614Z,20.48
2018-09-03T10:16:08.076Z,20.49
2018-09-03T10:18:37.403Z,20.52
2018-09-03T10:21:06.340Z,20.57
2018-09-03T10:23:34.835Z,20.65
2018-09-03T10:26:03.242Z,20.73
2018-09-03T10:28:32.383Z,20.82
2018-09-03T10:31:00.897Z,20.88
2018-09-03T10:33:29.432Z,20.97
2018-09-03T10:35:57.934Z,21.08
2018-09-03T10:38:26.547Z,21.32
2018-09-03T10:40:55.094Z,21.62
2018-09-03T10:43:23.739Z,21.88
2018-09-03T10:45:52.791Z,22.04
2018-09-03T10:48:21.331Z,22.14
2018-09-03T10:50:50.521Z,22.28
2018-09-03T10:53:19.864Z,22.43
2018-09-03T10:55:49.583Z,22.68
2018-09-03T10:58:18.038Z,22.82
2018-09-03T11:00:46.572Z,22.86
2018-09-03T11:03:15.111Z,22.91
2018-09-03T11:05:43.593Z,23.08
2018-09-03T11:08:12.114Z,23.51
2018-09-03T11:10:40.620Z,23.95
2018-09-03T11:13:09.386Z,24.31
2018-09-03T11:15:38.240Z,24.78
2018-09-03T11:18:06.915Z,24.82
2018-09-03T11:20:35.517Z,24.57
2018-09-03T11:23:04.343Z,24.00
2018-09-03T11:25:33.202Z,23.61
2018-09-03T11:28:01.668Z,23.28
2018-09-03T11:30:29.747Z,22.98
2018-09-03T11:32:59.420Z,22.77
2018-09-03T11:35:27.345Z,22.54
2018-09-03T11:37:55.366Z,22.41
2018-09-03T11:40:23.946Z,22.28
2018-09-03T11:42:52.272Z,22.19
2018-09-03T11:45:21.160Z,22.04
2018-09-03T11:47:49.287Z,21.97
2018-09-03T11:50:17.783Z,21.98
2018-09-03T11:52:45.502Z,21.93
2018-09-03T11:55:17.713Z,21.90
2018-09-03T11:57:45.745Z,21.85
2018-09-03T12:00:17.671Z,21.83
2018-09-03T12:02:45.515Z,21.93
2018-09-03T12:05:13.570Z,21.96
2018-09-03T12:07:42.104Z,21.93
2018-09-03T12:10:09.938Z,21.87
2018-09-03T12:12:38.040Z,21.81
2018-09-03T12:16:09.874Z,21.75
2018-09-03T12:18:39.408Z,21.87
2018-09-03T12:21:07.332Z,21.92
2018-09-03T12:23:35.060Z,21.94
2018-09-03T12:26:03.211Z,21.92
2018-09-03T12:28:31.251Z,21.88
2018-09-03T12:30:59.015Z,21.86
2018-09-03T12:33:26.946Z,21.94
2018-09-03T12:35:54.949Z,22.05
2018-09-03T12:38:22.971Z,22.07
2018-09-03T12:40:50.887Z,22.02
2018-09-03T12:43:20.099Z,21.95
2018-09-03T12:45:53.450Z,21.83
2018-09-03T12:48:22.080Z,21.73
2018-09-03T12:50:51.144Z,21.67
2018-09-03T12:53:18.929Z,21.59
2018-09-03T12:55:46.876Z,21.49
2018-09-03T12:58:14.555Z,21.44
2018-09-03T13:00:42.310Z,21.40
2018-09-03T13:03:10.354Z,21.41
2018-09-03T13:05:37.976Z,21.40
2018-09-03T13:08:05.656Z,21.39
2018-09-03T13:10:33.340Z,21.41
2018-09-03T13:13:01.842Z,21.41
2018-09-03T13:15:29.671Z,21.44
2018-09-03T13:17:57.367Z,21.47
2018-09-03T13:22:59.534Z,21.49
2018-09-03T13:25:34.144Z,21.51
2018-09-03T13:28:02.025Z,21.57
2018-09-03T13:30:29.745Z,21.61
2018-09-03T13:32:57.510Z,21.66
2018-09-03T13:35:26.564Z,21.67
2018-09-03T13:40:39.294Z,21.77
2018-09-03T13:43:07.104Z,21.79
2018-09-03T13:45:35.900Z,21.83
2018-09-03T13:48:14.804Z,21.84
2018-09-03T13:50:42.549Z,21.86
2018-09-03T13:53:10.361Z,21.86
2018-09-03T13:55:38.109Z,21.88
2018-09-03T13:58:06.267Z,21.89
2018-09-03T14:00:33.984Z,21.85
2018-09-03T14:03:01.813Z,21.82
2018-09-03T14:05:30.394Z,21.79
2018-09-03T14:07:58.223Z,21.79
2018-09-03T14:10:26.040Z,21.80
2018-09-03T14:12:53.810Z,21.79
2018-09-03T14:15:21.796Z,21.79
2018-09-03T14:17:50.188Z,21.78
2018-09-03T14:20:18.828Z,21.77
2018-09-03T14:22:46.971Z,21.76
2018-09-03T14:25:16.869Z,21.73
2018-09-03T14:27:44.516Z,21.70
2018-09-03T14:30:13.934Z,21.69
2018-09-03T14:32:41.841Z,21.69
2018-09-03T14:35:09.504Z,21.68
2018-09-03T14:37:37.192Z,21.68
2018-09-03T14:40:04.886Z,21.69
2018-09-03T14:42:33.564Z,21.69
2018-09-03T14:45:01.335Z,21.67
2018-09-03T14:47:29.044Z,21.64
2018-09-03T14:49:57.235Z,21.61
2018-09-03T14:52:25.035Z,21.57
2018-09-03T14:54:52.860Z,21.54
2018-09-03T14:57:20.586Z,21.52
2018-09-03T14:59:48.329Z,21.48
2018-09-03T15:02:16.094Z,21.46
2018-09-03T15:04:57.477Z,21.44
2018-09-03T15:07:25.715Z,21.45
2018-09-03T15:09:53.606Z,21.47
2018-09-03T15:12:21.459Z,21.49
2018-09-03T15:14:49.390Z,21.51
2018-09-03T15:17:17.264Z,21.54
2018-09-03T15:19:45.983Z,21.57
2018-09-03T15:22:14.291Z,21.60
2018-09-03T15:24:41.960Z,21.66
2018-09-03T15:27:09.753Z,21.70
2018-09-03T15:29:38.585Z,21.76
2018-09-03T15:32:06.565Z,21.81
2018-09-03T15:34:34.660Z,21.85
2018-09-03T15:37:02.617Z,21.88
2018-09-03T15:39:31.167Z,21.93
2018-09-03T15:42:08.401Z,21.96
2018-09-03T15:44:36.277Z,22.00
2018-09-03T15:47:04.257Z,22.06
2018-09-03T15:49:33.107Z,22.10
2018-09-03T15:52:03.140Z,22.12
2018-09-03T15:54:31.021Z,22.12
2018-09-03T15:56:58.980Z,22.17
2018-09-03T15:59:26.953Z,22.16
2018-09-03T16:01:55.883Z,22.16
2018-09-03T16:04:23.854Z,22.13
2018-09-03T16:06:57.836Z,22.12
2018-09-03T16:09:25.719Z,22.11
2018-09-03T16:11:53.562Z,22.10
2018-09-03T16:14:21.413Z,22.10
2018-09-03T16:16:51.234Z,22.06
2018-09-03T16:19:19.111Z,22.03
2018-09-03T16:21:46.982Z,22.02
2018-09-03T16:24:14.931Z,22.05
2018-09-03T16:26:42.820Z,22.08
2018-09-03T16:29:11.049Z,22.07
2018-09-03T16:31:39.186Z,22.04
2018-09-03T16:34:06.975Z,22.01
2018-09-03T16:36:34.646Z,21.99
2018-09-03T16:39:02.413Z,21.96
2018-09-03T16:41:30.122Z,21.95
2018-09-03T16:43:58.014Z,21.95
2018-09-03T16:46:25.759Z,21.98
2018-09-03T16:48:53.557Z,21.98
2018-09-03T16:51:21.203Z,21.94
2018-09-03T16:53:48.891Z,21.92
2018-09-03T16:56:16.630Z,21.89
2018-09-03T16:58:44.375Z,21.88
2018-09-03T17:01:12.338Z,21.84
2018-09-03T17:03:41.205Z,21.81
2018-09-03T17:06:09.176Z,21.81
2018-09-03T17:08:36.867Z,21.79
2018-09-03T17:11:04.774Z,21.75
2018-09-03T17:13:32.705Z,21.72
2018-09-03T17:16:00.499Z,21.70
2018-09-03T17:18:28.271Z,21.65
2018-09-03T17:20:56.101Z,21.63
2018-09-03T17:23:23.873Z,21.60
2018-09-03T17:26:02.397Z,21.58
2018-09-03T17:28:30.164Z,21.55
2018-09-03T17:30:57.865Z,21.52
2018-09-03T17:33:25.596Z,21.50
2018-09-03T17:35:53.330Z,21.47
2018-09-03T17:38:21.328Z,21.44
2018-09-03T17:40:49.076Z,21.41
2018-09-03T17:43:16.816Z,21.39
2018-09-03T17:45:44.811Z,21.36
2018-09-03T17:48:12.726Z,21.35
2018-09-03T17:50:42.128Z,21.32
2018-09-03T17:53:10.133Z,21.30
2018-09-03T17:55:38.013Z,21.29
2018-09-03T17:58:05.838Z,21.28
2018-09-03T18:00:33.989Z,21.26
2018-09-03T18:03:02.069Z,21.25
2018-09-03T18:05:29.776Z,21.22
2018-09-03T18:07:57.534Z,21.21
2018-09-03T18:10:25.380Z,21.19
2018-09-03T18:12:53.270Z,21.17
2018-09-03T18:15:21.107Z,21.14
2018-09-03T18:17:49.133Z,21.12
2018-09-03T18:20:18.076Z,21.09
2018-09-03T18:22:45.936Z,21.08
2018-09-03T18:25:13.683Z,21.05
2018-09-03T18:27:41.429Z,21.04
2018-09-03T18:30:09.213Z,21.01
2018-09-03T18:32:37.065Z,20.99
2018-09-03T18:35:04.964Z,20.97
2018-09-03T18:37:32.889Z,20.97
2018-09-03T18:40:00.698Z,20.95
2018-09-03T18:42:28.464Z,20.94
2018-09-03T18:44:56.200Z,20.92
2018-09-03T18:47:23.866Z,20.90
2018-09-03T18:49:51.718Z,20.89
2018-09-03T18:52:19.473Z,20.88
2018-09-03T18:54:47.232Z,20.86
2018-09-03T18:57:15.052Z,20.84
2018-09-03T18:59:42.995Z,20.82
2018-09-03T19:02:10.899Z,20.81
2018-09-03T19:04:38.955Z,20.79
2018-09-03T19:07:06.622Z,20.78
2018-09-03T19:09:34.383Z,20.75
2018-09-03T19:12:02.534Z,20.72
2018-09-03T19:14:30.445Z,20.71
2018-09-03T19:16:58.243Z,20.70
2018-09-03T19:19:26.218Z,20.69
2018-09-03T19:21:54.085Z,20.66
2018-09-03T19:24:21.902Z,20.63
2018-09-03T19:26:50.589Z,20.62
2018-09-03T19:29:18.514Z,20.62
2018-09-03T19:31:46.635Z,20.60
2018-09-03T19:34:14.428Z,20.59
2018-09-03T19:36:42.435Z,20.58
2018-09-03T19:39:10.230Z,20.56
2018-09-03T19:41:38.148Z,20.57
2018-09-03T19:44:05.860Z,20.56
2018-09-03T19:46:33.478Z,20.56
2018-09-03T19:49:01.420Z,20.56
2018-09-03T19:51:29.295Z,20.55
2018-09-03T19:53:57.330Z,20.55
2018-09-03T19:56:25.025Z,20.55
2018-09-03T19:58:52.814Z,20.55
2018-09-03T20:01:20.605Z,20.52
2018-09-03T20:03:48.515Z,20.53
2018-09-03T20:06:16.251Z,20.54
2018-09-03T20:08:44.152Z,20.55
2018-09-03T20:11:12.090Z,20.55
2018-09-03T20:13:39.890Z,20.55
2018-09-03T20:16:07.592Z,20.55
2018-09-03T20:18:35.502Z,20.56
2018-09-03T20:21:03.296Z,20.57
2018-09-03T20:23:31.232Z,20.56
2018-09-03T20:25:59.846Z,20.56
2018-09-03T20:28:28.006Z,20.56
2018-09-03T20:30:56.292Z,20.55
2018-09-03T20:33:24.038Z,20.54
2018-09-03T20:35:51.857Z,20.55
2018-09-03T20:38:19.988Z,20.55
2018-09-03T20:40:47.790Z,20.55
2018-09-03T20:43:15.710Z,20.55
2018-09-03T20:45:43.574Z,20.55
2018-09-03T20:48:11.667Z,20.54
2018-09-03T20:50:40.246Z,20.55
2018-09-03T20:53:08.087Z,20.54
2018-09-03T20:55:36.003Z,20.53
2018-09-03T20:58:05.014Z,20.52
2018-09-03T21:00:32.899Z,20.52
2018-09-03T21:03:00.531Z,20.53
2018-09-03T21:05:28.263Z,20.53
2018-09-03T21:07:56.063Z,20.53
2018-09-03T21:10:23.869Z,20.53
2018-09-03T21:12:51.503Z,20.53
2018-09-03T21:15:19.162Z,20.54
2018-09-03T21:17:46.826Z,20.51
2018-09-03T21:20:14.677Z,20.51
2018-09-03T21:22:42.409Z,20.50
2018-09-03T21:25:11.393Z,20.50
2018-09-03T21:27:39.371Z,20.49
2018-09-03T21:30:07.657Z,20.49
2018-09-03T21:32:35.584Z,20.49
2018-09-03T21:35:03.766Z,20.49
2018-09-03T21:37:32.235Z,20.50
2018-09-03T21:40:00.174Z,20.49
2018-09-03T21:42:27.964Z,20.49
2018-09-03T21:44:55.865Z,20.49
2018-09-03T21:47:23.720Z,20.50
2018-09-03T21:49:51.496Z,20.51
2018-09-03T21:52:20.334Z,20.50
2018-09-03T21:54:49.304Z,20.50
2018-09-03T21:57:16.986Z,20.50
2018-09-03T21:59:44.739Z,20.50
2018-09-03T22:02:21.780Z,20.50
2018-09-03T22:04:49.540Z,20.49
2018-09-03T22:07:17.348Z,20.49
2018-09-03T22:09:45.162Z,20.49
2018-09-03T22:12:12.970Z,20.50
2018-09-03T22:14:40.655Z,20.48
2018-09-03T22:17:08.352Z,20.48
2018-09-03T22:19:36.291Z,20.48
2018-09-03T22:22:09.123Z,20.46
2018-09-03T22:24:36.727Z,20.45
2018-09-03T22:27:04.714Z,20.43
2018-09-03T22:29:32.414Z,20.44
2018-09-03T22:32:00.415Z,20.44
2018-09-03T22:34:28.021Z,20.43
2018-09-03T22:36:55.788Z,20.44
2018-09-03T22:39:23.580Z,20.42
2018-09-03T22:41:51.310Z,20.42
2018-09-03T22:44:19.005Z,20.42
2018-09-03T22:46:46.712Z,20.41
2018-09-03T22:49:14.380Z,20.41
2018-09-03T22:51:42.072Z,20.41
2018-09-03T22:54:10.218Z,20.41
2018-09-03T22:56:37.855Z,20.41
2018-09-03T22:59:05.516Z,20.40
2018-09-03T23:01:33.201Z,20.39
2018-09-03T23:04:00.974Z,20.39
2018-09-03T23:06:28.625Z,20.38
2018-09-03T23:08:56.352Z,20.37
2018-09-03T23:11:24.139Z,20.36
2018-09-03T23:13:51.875Z,20.36
2018-09-03T23:16:19.520Z,20.35
2018-09-03T23:18:47.240Z,20.33
2018-09-03T23:21:15.035Z,20.33
2018-09-03T23:23:42.984Z,20.31
2018-09-03T23:26:10.637Z,20.28
2018-09-03T23:28:38.391Z,20.26
2018-09-03T23:31:06.065Z,20.24
2018-09-03T23:33:33.914Z,20.23
2018-09-03T23:36:01.627Z,20.22
2018-09-03T23:38:29.392Z,20.20
2018-09-03T23:40:57.068Z,20.18
2018-09-03T23:43:24.758Z,20.16
2018-09-03T23:45:52.437Z,20.14
2018-09-03T23:48:20.052Z,20.14
2018-09-03T23:50:47.814Z,20.12
2018-09-03T23:53:15.521Z,20.10
2018-09-03T23:55:43.230Z,20.08
2018-09-03T23:58:10.947Z,20.06
